createdAt,value
2022-10-01T00:01:04.995Z,98538.06
2022-10-01T00:03:39.464Z,98528.53
2022-10-01T00:06:14.629Z,98538.63
2022-10-01T00:08:41.864Z,98533.22
2022-10-01T00:11:14.231Z,98516.53
2022-10-01T00:13:43.025Z,98530.66
2022-10-01T00:16:12.843Z,98526.09
2022-10-01T00:18:40.387Z,98517.41
2022-10-01T00:21:12.372Z,98522.09
2022-10-01T00:23:39.408Z,98518.19
2022-10-01T00:26:14.961Z,98513.50
2022-10-01T00:28:42.180Z,98527.00
2022-10-01T00:31:09.509Z,98526.31
2022-10-01T00:33:36.789Z,98529.88
2022-10-01T00:36:05.431Z,98533.25
2022-10-01T00:38:32.593Z,98538.50
2022-10-01T00:40:59.633Z,98537.78
2022-10-01T00:43:28.452Z,98539.50
2022-10-01T00:45:57.079Z,98535.09
2022-10-01T00:48:23.887Z,98529.94
2022-10-01T00:50:50.884Z,98535.22
2022-10-01T00:53:17.601Z,98540.88
2022-10-01T00:55:46.084Z,98546.28
2022-10-01T00:58:13.396Z,98546.56
2022-10-01T01:00:40.557Z,98547.13
2022-10-01T01:03:07.306Z,98550.97
2022-10-01T01:05:34.245Z,98547.53
2022-10-01T01:08:01.672Z,98538.44
2022-10-01T01:10:50.196Z,98538.84
2022-10-01T01:13:24.962Z,98532.47
2022-10-01T01:16:34.046Z,98526.94
2022-10-01T01:19:20.951Z,98524.63
2022-10-01T01:21:49.596Z,98524.75
2022-10-01T01:24:28.751Z,98523.91
2022-10-01T01:27:16.334Z,98523.78
2022-10-01T01:30:04.261Z,98525.75
2022-10-01T01:32:38.439Z,98525.91
2022-10-01T01:35:07.251Z,98528.16
2022-10-01T01:37:45.273Z,98538.25
2022-10-01T01:40:12.350Z,98529.56
2022-10-01T01:42:39.717Z,98526.03
2022-10-01T01:45:09.892Z,98540.25
2022-10-01T01:47:38.242Z,98546.63
2022-10-01T01:50:07.589Z,98543.66
2022-10-01T01:52:34.454Z,98536.97
2022-10-01T01:55:08.628Z,98534.13
2022-10-01T01:57:40.678Z,98534.13
2022-10-01T02:00:08.084Z,98534.25
2022-10-01T02:02:35.296Z,98535.22
2022-10-01T02:05:04.198Z,98542.22
2022-10-01T02:07:34.163Z,98535.09
2022-10-01T02:10:11.987Z,98537.81
2022-10-01T02:13:04.003Z,98544.34
2022-10-01T02:15:40.144Z,98553.16
2022-10-01T02:18:16.638Z,98551.69
2022-10-01T02:20:50.667Z,98539.06
2022-10-01T02:23:25.310Z,98535.22
2022-10-01T02:25:56.602Z,98538.06
2022-10-01T02:28:24.399Z,98534.38
2022-10-01T02:30:51.974Z,98543.47
2022-10-01T02:33:22.359Z,98538.19
2022-10-01T02:35:49.518Z,98541.03
2022-10-01T02:38:16.828Z,98535.50
2022-10-01T02:40:44.365Z,98528.28
2022-10-01T02:43:14.719Z,98534.91
2022-10-01T02:45:41.550Z,98530.22
2022-10-01T02:48:09.554Z,98534.66
2022-10-01T02:50:50.178Z,98527.53
2022-10-01T02:53:39.784Z,98528.41
2022-10-01T02:56:06.741Z,98527.81
2022-10-01T02:58:33.476Z,98534.50
2022-10-01T03:01:00.229Z,98528.53
2022-10-01T03:03:27.395Z,98530.22
2022-10-01T03:05:54.197Z,98534.66
2022-10-01T03:08:20.909Z,98528.28
2022-10-01T03:10:47.873Z,98517.59
2022-10-01T03:13:14.844Z,98522.00
2022-10-01T03:15:41.648Z,98515.75
2022-10-01T03:18:08.653Z,98506.94
2022-10-01T03:20:35.353Z,98506.66
2022-10-01T03:23:02.097Z,98500.50
2022-10-01T03:25:29.370Z,98499.94
2022-10-01T03:27:56.223Z,98489.59
2022-10-01T03:30:23.059Z,98479.03
2022-10-01T03:32:50.020Z,98483.47
2022-10-01T03:35:17.165Z,98494.97
2022-10-01T03:37:43.940Z,98486.75
2022-10-01T03:40:10.985Z,98480.75
2022-10-01T03:42:37.753Z,98480.63
2022-10-01T03:45:04.655Z,98480.75
2022-10-01T03:47:31.873Z,98473.25
2022-10-01T03:49:58.615Z,98478.53
2022-10-01T03:52:25.525Z,98479.91
2022-10-01T03:54:52.617Z,98478.06
2022-10-01T03:57:19.461Z,98476.34
2022-10-01T03:59:46.275Z,98475.22
2022-10-01T04:02:13.460Z,98472.94
2022-10-01T04:04:40.461Z,98466.53
2022-10-01T04:07:07.238Z,98464.69
2022-10-01T04:09:34.310Z,98463.00
2022-10-01T04:12:01.265Z,98466.69
2022-10-01T04:14:28.172Z,98456.84
2022-10-01T04:16:55.141Z,98454.16
2022-10-01T04:19:21.960Z,98452.19
2022-10-01T04:21:48.921Z,98456.84
2022-10-01T04:24:16.129Z,98457.72
2022-10-01T04:26:42.910Z,98456.72
2022-10-01T04:29:09.724Z,98452.34
2022-10-01T04:31:37.213Z,98454.91
2022-10-01T04:34:04.408Z,98455.88
2022-10-01T04:36:31.251Z,98463.00
2022-10-01T04:39:02.139Z,98455.03
2022-10-01T04:41:31.143Z,98455.63
2022-10-01T04:44:01.656Z,98456.47
2022-10-01T04:46:30.289Z,98456.59
2022-10-01T04:48:57.457Z,98458.44
2022-10-01T04:51:24.638Z,98456.72
2022-10-01T04:53:51.455Z,98454.72
2022-10-01T04:56:18.263Z,98452.19
2022-10-01T04:58:45.239Z,98458.44
2022-10-01T05:01:12.144Z,98454.91
2022-10-01T05:03:39.016Z,98456.47
2022-10-01T05:06:06.196Z,98454.91
2022-10-01T05:08:33.096Z,98456.59
2022-10-01T05:11:00.448Z,98453.03
2022-10-01T05:13:30.238Z,98451.91
2022-10-01T05:15:58.131Z,98454.59
2022-10-01T05:18:25.101Z,98452.78
2022-10-01T05:20:52.109Z,98445.66
2022-10-01T05:23:18.881Z,98452.78
2022-10-01T05:25:47.022Z,98449.94
2022-10-01T05:28:19.799Z,98448.94
2022-10-01T05:30:49.089Z,98451.50
2022-10-01T05:33:16.110Z,98457.03
2022-10-01T05:35:42.974Z,98454.06
2022-10-01T05:38:10.009Z,98455.94
2022-10-01T05:40:37.052Z,98453.22
2022-10-01T05:43:04.541Z,98460.31
2022-10-01T05:45:31.882Z,98462.31
2022-10-01T05:48:05.960Z,98456.66
2022-10-01T05:50:34.672Z,98457.63
2022-10-01T05:53:02.049Z,98460.19
2022-10-01T05:55:34.811Z,98460.19
2022-10-01T05:58:10.547Z,98458.50
2022-10-01T06:00:37.524Z,98458.25
2022-10-01T06:03:05.469Z,98456.38
2022-10-01T06:05:33.035Z,98464.47
2022-10-01T06:08:00.790Z,98458.25
2022-10-01T06:10:30.393Z,98459.66
2022-10-01T06:13:05.480Z,98452.28
2022-10-01T06:15:34.306Z,98454.97
2022-10-01T06:18:05.660Z,98454.97
2022-10-01T06:20:32.531Z,98451.44
2022-10-01T06:22:59.743Z,98458.38
2022-10-01T06:25:30.717Z,98460.13
2022-10-01T06:28:00.766Z,98469.69
2022-10-01T06:30:29.482Z,98458.00
2022-10-01T06:33:06.231Z,98462.56
2022-10-01T06:35:33.806Z,98453.47
2022-10-01T06:38:03.443Z,98449.75
2022-10-01T06:40:31.363Z,98447.06
2022-10-01T06:42:58.753Z,98449.34
2022-10-01T06:45:27.142Z,98442.09
2022-10-01T06:47:58.485Z,98454.75
2022-10-01T06:50:25.608Z,98433.84
2022-10-01T06:52:52.715Z,98440.72
2022-10-01T06:55:21.534Z,98447.09
2022-10-01T06:57:50.327Z,98436.88
2022-10-01T07:00:17.215Z,98435.31
2022-10-01T07:02:44.149Z,98432.44
2022-10-01T07:05:12.431Z,98432.16
2022-10-01T07:07:39.470Z,98440.00
2022-10-01T07:10:07.686Z,98425.66
2022-10-01T07:12:35.605Z,98426.81
2022-10-01T07:15:02.505Z,98421.53
2022-10-01T07:17:29.254Z,98425.13
2022-10-01T07:19:58.250Z,98419.72
2022-10-01T07:22:25.273Z,98418.41
2022-10-01T07:24:52.313Z,98425.69
2022-10-01T07:27:19.796Z,98421.97
2022-10-01T07:29:46.884Z,98421.69
2022-10-01T07:32:13.877Z,98422.28
2022-10-01T07:34:40.969Z,98424.56
2022-10-01T07:37:08.034Z,98417.88
2022-10-01T07:39:35.664Z,98410.50
2022-10-01T07:42:02.896Z,98412.19
2022-10-01T07:44:29.716Z,98410.94
2022-10-01T07:46:56.809Z,98409.78
2022-10-01T07:49:25.261Z,98402.41
2022-10-01T07:51:53.340Z,98400.53
2022-10-01T07:54:23.235Z,98406.38
2022-10-01T07:56:52.958Z,98413.34
2022-10-01T07:59:19.797Z,98408.69
2022-10-01T08:01:51.756Z,98412.53
2022-10-01T08:04:41.204Z,98411.44
2022-10-01T08:07:08.281Z,98395.63
2022-10-01T08:09:35.518Z,98402.56
2022-10-01T08:12:03.037Z,98409.56
2022-10-01T08:14:30.449Z,98405.56
2022-10-01T08:16:57.692Z,98410.56
2022-10-01T08:19:24.730Z,98404.88
2022-10-01T08:21:51.535Z,98406.41
2022-10-01T08:24:20.042Z,98406.13
2022-10-01T08:26:52.338Z,98405.16
2022-10-01T08:29:19.608Z,98404.00
2022-10-01T08:31:46.388Z,98401.84
2022-10-01T08:34:14.009Z,98409.41
2022-10-01T08:36:41.277Z,98407.09
2022-10-01T08:39:08.257Z,98408.84
2022-10-01T08:41:44.219Z,98410.09
2022-10-01T08:44:27.956Z,98409.81
2022-10-01T08:47:00.812Z,98402.25
2022-10-01T08:49:33.251Z,98401.13
2022-10-01T08:52:03.627Z,98399.81
2022-10-01T08:55:00.572Z,98395.66
2022-10-01T08:57:49.841Z,98395.06
2022-10-01T09:00:17.392Z,98394.09
2022-10-01T09:02:46.045Z,98397.34
2022-10-01T09:05:20.269Z,98402.63
2022-10-01T09:07:50.653Z,98400.47
2022-10-01T09:10:27.339Z,98390.47
2022-10-01T09:13:13.426Z,98384.63
2022-10-01T09:15:59.520Z,98387.88
2022-10-01T09:19:00.585Z,98384.19
2022-10-01T09:21:39.246Z,98384.03
2022-10-01T09:25:03.990Z,98372.91
2022-10-01T09:27:30.815Z,98377.16
2022-10-01T09:29:58.830Z,98380.28
2022-10-01T09:32:37.147Z,98376.72
2022-10-01T09:35:15.436Z,98369.28
2022-10-01T09:37:49.202Z,98364.72
2022-10-01T09:40:38.548Z,98361.72
2022-10-01T09:43:08.237Z,98359.72
2022-10-01T09:45:35.662Z,98356.16
2022-10-01T09:48:05.211Z,98358.59
2022-10-01T09:50:38.623Z,98356.72
2022-10-01T09:53:05.777Z,98344.34
2022-10-01T09:55:43.174Z,98347.44
2022-10-01T09:58:15.485Z,98346.28
2022-10-01T10:00:42.260Z,98338.88
2022-10-01T10:03:09.173Z,98332.72
2022-10-01T10:05:46.658Z,98336.31
2022-10-01T10:08:19.652Z,98328.72
2022-10-01T10:10:52.001Z,98330.56
2022-10-01T10:13:39.342Z,98326.56
2022-10-01T10:16:26.289Z,98311.81
2022-10-01T10:19:04.802Z,98307.28
2022-10-01T10:21:36.322Z,98309.84
2022-10-01T10:24:05.061Z,98294.97
2022-10-01T10:26:33.553Z,98296.84
2022-10-01T10:29:02.836Z,98285.69
2022-10-01T10:31:42.828Z,98285.91
2022-10-01T10:34:22.348Z,98277.31
2022-10-01T10:36:49.904Z,98271.72
2022-10-01T10:39:25.016Z,98277.69
2022-10-01T10:41:52.118Z,98259.97
2022-10-01T10:44:21.450Z,98261.34
2022-10-01T10:46:49.352Z,98246.31
2022-10-01T10:49:19.304Z,98246.03
2022-10-01T10:51:54.007Z,98241.72
2022-10-01T10:54:30.294Z,98239.00
2022-10-01T10:57:04.155Z,98239.75
2022-10-01T10:59:32.983Z,98229.94
2022-10-01T11:02:01.409Z,98231.25
2022-10-01T11:04:38.811Z,98220.63
2022-10-01T11:07:05.931Z,98226.47
2022-10-01T11:09:43.429Z,98212.59
2022-10-01T11:12:56.673Z,98209.25
2022-10-01T11:15:46.123Z,98205.53
2022-10-01T11:18:32.893Z,98203.53
2022-10-01T11:21:21.172Z,98198.28
2022-10-01T11:24:14.269Z,98190.47
2022-10-01T11:26:53.649Z,98183.72
2022-10-01T11:29:32.996Z,98184.38
2022-10-01T11:32:09.036Z,98182.03
2022-10-01T11:34:44.270Z,98181.00
2022-10-01T11:37:32.696Z,98173.25
2022-10-01T11:40:00.436Z,98159.28
2022-10-01T11:42:34.724Z,98161.19
2022-10-01T11:45:09.389Z,98166.09
2022-10-01T11:47:38.062Z,98156.25
2022-10-01T11:50:21.061Z,98155.91
2022-10-01T11:53:00.099Z,98165.59
2022-10-01T11:55:55.597Z,98157.44
2022-10-01T11:58:54.119Z,98150.78
2022-10-01T12:01:24.373Z,98157.94
2022-10-01T12:03:54.304Z,98152.50
2022-10-01T12:06:26.806Z,98148.91
2022-10-01T12:09:26.806Z,98143.63
2022-10-01T12:11:55.650Z,98147.72
2022-10-01T12:14:27.559Z,98139.06
2022-10-01T12:17:20.450Z,98130.69
2022-10-01T12:19:50.456Z,98137.81
2022-10-01T12:22:24.277Z,98136.28
2022-10-01T12:24:51.981Z,98130.34
2022-10-01T12:27:40.466Z,98132.38
2022-10-01T12:30:18.447Z,98130.16
2022-10-01T12:32:51.409Z,98127.44
2022-10-01T12:35:43.940Z,98130.00
2022-10-01T12:38:29.142Z,98126.94
2022-10-01T12:41:55.596Z,98123.03
2022-10-01T12:44:47.145Z,98122.31
2022-10-01T12:47:38.336Z,98118.94
2022-10-01T12:50:35.742Z,98113.97
2022-10-01T12:53:02.829Z,98120.47
2022-10-01T12:55:37.188Z,98116.38
2022-10-01T12:58:14.116Z,98110.94
2022-10-01T13:01:11.639Z,98122.16
2022-10-01T13:04:03.331Z,98113.81
2022-10-01T13:06:53.063Z,98109.19
2022-10-01T13:09:26.087Z,98101.75
2022-10-01T13:12:43.904Z,98110.25
2022-10-01T13:15:20.630Z,98104.47
2022-10-01T13:17:55.431Z,98097.78
2022-10-01T13:20:41.111Z,98097.31
2022-10-01T13:23:47.247Z,98092.69
2022-10-01T13:26:42.023Z,98093.56
2022-10-01T13:29:30.556Z,98091.84
2022-10-01T13:32:22.557Z,98090.16
2022-10-01T13:34:49.429Z,98081.97
2022-10-01T13:37:29.772Z,98089.31
2022-10-01T13:39:59.774Z,98078.59
2022-10-01T13:42:29.032Z,98080.31
2022-10-01T13:45:08.908Z,98076.53
2022-10-01T13:47:40.140Z,98074.00
2022-10-01T13:50:24.025Z,98074.88
2022-10-01T13:52:51.689Z,98069.41
2022-10-01T13:55:29.139Z,98064.16
2022-10-01T13:58:06.328Z,98067.72
2022-10-01T14:00:33.259Z,98063.97
2022-10-01T14:03:07.287Z,98056.66
2022-10-01T14:05:40.615Z,98058.34
2022-10-01T14:08:19.458Z,98056.47
2022-10-01T14:11:21.948Z,98057.47
2022-10-01T14:14:08.499Z,98053.75
2022-10-01T14:16:41.066Z,98052.75
2022-10-01T14:19:17.499Z,98040.13
2022-10-01T14:21:52.374Z,98047.47
2022-10-01T14:24:25.801Z,98039.47
2022-10-01T14:26:54.623Z,98039.47
2022-10-01T14:29:43.559Z,98042.19
2022-10-01T14:32:25.740Z,98035.72
2022-10-01T14:35:20.682Z,98036.94
2022-10-01T14:37:47.451Z,98036.25
2022-10-01T14:40:21.989Z,98034.72
2022-10-01T14:43:03.082Z,98033.72
2022-10-01T14:45:30.281Z,98029.09
2022-10-01T14:48:04.537Z,98027.56
2022-10-01T14:50:35.114Z,98025.56
2022-10-01T14:53:01.874Z,98023.00
2022-10-01T14:55:28.783Z,98028.44
2022-10-01T14:57:55.826Z,98021.28
2022-10-01T15:00:29.898Z,98033.03
2022-10-01T15:03:12.693Z,98019.94
2022-10-01T15:05:39.578Z,98032.00
2022-10-01T15:08:22.365Z,98025.06
2022-10-01T15:10:53.875Z,98028.44
2022-10-01T15:13:42.356Z,98018.09
2022-10-01T15:16:20.189Z,98027.44
2022-10-01T15:18:49.712Z,98020.13
2022-10-01T15:21:23.249Z,98016.75
2022-10-01T15:23:50.326Z,98009.59
2022-10-01T15:26:22.482Z,98018.78
2022-10-01T15:28:49.570Z,98016.22
2022-10-01T15:31:16.821Z,98010.97
2022-10-01T15:33:43.641Z,98009.28
2022-10-01T15:36:16.894Z,98006.91
2022-10-01T15:38:45.232Z,98006.25
2022-10-01T15:41:33.348Z,98005.19
2022-10-01T15:44:05.033Z,97998.91
2022-10-01T15:46:35.165Z,97995.53
2022-10-01T15:49:16.522Z,97994.69
2022-10-01T15:52:12.431Z,97995.72
2022-10-01T15:54:40.471Z,97980.94
2022-10-01T15:57:07.263Z,97981.78
2022-10-01T15:59:34.687Z,97982.47
2022-10-01T16:02:04.807Z,97979.09
2022-10-01T16:04:31.694Z,97972.66
2022-10-01T16:06:58.499Z,97963.13
2022-10-01T16:09:30.349Z,97966.88
2022-10-01T16:12:00.166Z,97968.25
2022-10-01T16:14:43.771Z,97965.03
2022-10-01T16:17:16.817Z,97974.38
2022-10-01T16:19:50.860Z,97971.66
2022-10-01T16:22:18.681Z,97980.34
2022-10-01T16:24:49.696Z,97968.44
2022-10-01T16:27:21.681Z,97970.31
2022-10-01T16:30:05.511Z,97971.00
2022-10-01T16:32:32.575Z,97967.78
2022-10-01T16:35:19.579Z,97976.44
2022-10-01T16:37:48.254Z,97971.19
2022-10-01T16:40:16.483Z,97963.88
2022-10-01T16:42:44.375Z,97964.91
2022-10-01T16:45:18.558Z,97965.25
2022-10-01T16:47:46.027Z,97966.94
2022-10-01T16:50:14.250Z,97962.69
2022-10-01T16:52:41.013Z,97962.38
2022-10-01T16:55:17.944Z,97964.91
2022-10-01T16:57:44.700Z,97968.28
2022-10-01T17:00:18.933Z,97970.50
2022-10-01T17:02:45.750Z,97975.78
2022-10-01T17:05:22.690Z,97973.41
2022-10-01T17:07:49.528Z,97978.16
2022-10-01T17:10:17.281Z,97977.66
2022-10-01T17:12:44.135Z,97981.06
2022-10-01T17:15:12.975Z,97983.09
2022-10-01T17:17:40.063Z,97995.00
2022-10-01T17:20:07.648Z,97989.91
2022-10-01T17:22:34.496Z,97990.25
2022-10-01T17:25:01.496Z,98000.94
2022-10-01T17:27:28.922Z,98008.41
2022-10-01T17:29:57.233Z,98003.84
2022-10-01T17:32:24.260Z,98014.19
2022-10-01T17:34:53.721Z,98015.22
2022-10-01T17:37:23.068Z,98014.53
2022-10-01T17:39:50.142Z,98012.84
2022-10-01T17:42:18.089Z,98013.00
2022-10-01T17:44:45.074Z,98013.00
2022-10-01T17:47:12.152Z,98028.06
2022-10-01T17:49:39.134Z,98021.78
2022-10-01T17:52:06.719Z,98032.97
2022-10-01T17:54:33.533Z,98029.09
2022-10-01T17:57:00.328Z,98038.72
2022-10-01T17:59:27.383Z,98029.91
2022-10-01T18:01:54.500Z,98038.03
2022-10-01T18:04:21.609Z,98033.81
2022-10-01T18:06:49.081Z,98040.50
2022-10-01T18:09:15.861Z,98033.41
2022-10-01T18:11:42.685Z,98041.22
2022-10-01T18:14:09.842Z,98036.25
2022-10-01T18:16:36.867Z,98035.56
2022-10-01T18:21:51.229Z,98038.09
2022-10-01T18:24:18.144Z,98025.16
2022-10-01T18:26:45.757Z,98022.94
2022-10-01T18:29:30.934Z,98017.81
2022-10-01T18:32:17.285Z,98022.25
2022-10-01T18:34:49.746Z,98023.59
2022-10-01T18:37:52.746Z,98019.69
2022-10-01T18:40:30.510Z,98016.78
2022-10-01T18:43:13.386Z,98013.06
2022-10-01T18:45:49.554Z,98020.19
2022-10-01T18:48:25.368Z,98023.41
2022-10-01T18:51:13.608Z,98024.41
2022-10-01T18:53:49.631Z,98028.97
2022-10-01T18:56:25.902Z,98034.88
2022-10-01T18:59:15.873Z,98047.19
2022-10-01T19:02:16.917Z,98075.03
2022-10-01T19:04:55.909Z,98072.94
2022-10-01T19:07:55.215Z,98075.81
2022-10-01T19:10:31.632Z,98074.81
2022-10-01T19:13:20.512Z,98075.97
2022-10-01T19:15:59.450Z,98077.16
2022-10-01T19:18:41.797Z,98082.91
2022-10-01T19:21:36.969Z,98073.06
2022-10-01T19:24:22.743Z,98076.44
2022-10-01T19:26:58.131Z,98076.44
2022-10-01T19:29:38.128Z,98087.25
2022-10-01T19:32:12.401Z,98090.59
2022-10-01T19:34:43.260Z,98081.28
2022-10-01T19:37:19.098Z,98080.59
2022-10-01T19:39:46.272Z,98091.59
2022-10-01T19:42:17.515Z,98100.38
2022-10-01T19:45:02.082Z,98094.25
2022-10-01T19:47:31.358Z,98097.97
2022-10-01T19:49:59.733Z,98099.81
2022-10-01T19:52:26.462Z,98102.00
2022-10-01T19:54:55.506Z,98110.13
2022-10-01T19:57:24.833Z,98115.53
2022-10-01T19:59:54.210Z,98106.72
2022-10-01T20:02:31.371Z,98104.59
2022-10-01T20:05:01.737Z,98106.19
2022-10-01T20:07:30.320Z,98099.19
2022-10-01T20:10:27.563Z,98104.53
2022-10-01T20:13:13.009Z,98098.81
2022-10-01T20:15:39.801Z,98102.00
2022-10-01T20:18:21.676Z,98102.00
2022-10-01T20:21:04.065Z,98109.91
2022-10-01T20:23:36.884Z,98114.28
2022-10-01T20:26:37.988Z,98108.34
2022-10-01T20:29:15.401Z,98111.34
2022-10-01T20:31:59.415Z,98114.34
2022-10-01T20:34:54.448Z,98114.50
2022-10-01T20:37:38.642Z,98120.09
2022-10-01T20:40:13.428Z,98124.81
2022-10-01T20:42:46.673Z,98119.25
2022-10-01T20:45:28.159Z,98127.50
2022-10-01T20:47:58.819Z,98132.09
2022-10-01T20:50:33.019Z,98133.22
2022-10-01T20:53:04.044Z,98133.41
2022-10-01T20:55:39.039Z,98138.97
2022-10-01T20:58:11.239Z,98140.13
2022-10-01T21:00:38.489Z,98142.00
2022-10-01T21:03:09.176Z,98140.28
2022-10-01T21:05:43.388Z,98151.25
2022-10-01T21:08:38.330Z,98147.56
2022-10-01T21:11:09.584Z,98147.72
2022-10-01T21:13:40.760Z,98153.28
2022-10-01T21:16:28.206Z,98154.25
2022-10-01T21:19:18.253Z,98162.38
2022-10-01T21:22:01.561Z,98157.13
2022-10-01T21:24:37.759Z,98162.72
2022-10-01T21:27:18.709Z,98164.84
2022-10-01T21:30:04.968Z,98164.00
2022-10-01T21:32:50.580Z,98165.00
2022-10-01T21:35:39.450Z,98151.78
2022-10-01T21:38:30.118Z,98155.34
2022-10-01T21:41:15.306Z,98151.66
2022-10-01T21:43:46.890Z,98152.09
2022-10-01T21:46:30.639Z,98146.97
2022-10-01T21:49:07.453Z,98153.78
2022-10-01T21:51:41.117Z,98156.34
2022-10-01T21:54:17.403Z,98154.41
2022-10-01T21:57:10.276Z,98160.66
2022-10-01T22:00:17.742Z,98156.09
2022-10-01T22:03:07.203Z,98159.09
2022-10-01T22:05:39.614Z,98160.94
2022-10-01T22:08:52.818Z,98164.50
2022-10-01T22:11:25.505Z,98168.53
2022-10-01T22:14:01.466Z,98185.75
2022-10-01T22:16:52.905Z,98184.06
2022-10-01T22:19:28.867Z,98176.09
2022-10-01T22:22:03.562Z,98177.97
2022-10-01T22:24:43.858Z,98176.78
2022-10-01T22:27:24.801Z,98178.81
2022-10-01T22:30:13.811Z,98174.22
2022-10-01T22:32:44.518Z,98172.69
2022-10-01T22:35:17.534Z,98181.34
2022-10-01T22:37:49.275Z,98187.06
2022-10-01T22:40:18.886Z,98186.22
2022-10-01T22:42:50.164Z,98185.34
2022-10-01T22:45:17.390Z,98197.19
2022-10-01T22:47:53.374Z,98192.91
2022-10-01T22:51:05.008Z,98185.97
2022-10-01T22:53:54.198Z,98190.84
2022-10-01T22:56:47.323Z,98194.66
2022-10-01T22:59:43.646Z,98196.53
2022-10-01T23:02:29.393Z,98198.50
2022-10-01T23:05:37.916Z,98203.38
2022-10-01T23:08:24.098Z,98202.81
2022-10-01T23:11:15.166Z,98199.13
2022-10-01T23:14:00.529Z,98193.16
2022-10-01T23:16:36.847Z,98203.25
2022-10-01T23:19:17.521Z,98203.25
2022-10-01T23:21:56.617Z,98207.81
2022-10-01T23:24:32.563Z,98207.97
2022-10-01T23:27:17.978Z,98221.63
2022-10-01T23:29:54.107Z,98219.94
2022-10-01T23:32:23.805Z,98231.75
2022-10-01T23:35:13.845Z,98234.47
2022-10-01T23:37:43.614Z,98240.72
2022-10-01T23:40:14.970Z,98237.44
2022-10-01T23:43:00.595Z,98233.06
2022-10-01T23:45:30.618Z,98245.56
2022-10-01T23:47:57.490Z,98243.88
2022-10-01T23:50:53.046Z,98235.03
2022-10-01T23:53:22.870Z,98239.59
2022-10-01T23:56:42.502Z,98245.00
2022-10-01T23:59:28.358Z,98249.69
